Flight Track Log - Related Links

Times and Time Zones

All times are in EDT time to prevent confusion due to time zone crossing. See the AWI3722 flight status page for this flight to view local times or setup timezone preferences in your user account.

Time Position Orientation Groundspeed Altitude Reporting Facility
EDT Latitude Longitude Course Direction KTS MPH feet Rate Location/Type
Mon 03:41:00 PM 43.5428 -70.1509 226° Southwest  Level FlightAware Approximate
Mon 03:42:00 PM 43.4754 -70.2471 226° Southwest  Level FlightAware Approximate
Mon 03:42:24 PM 43.6111 -70.6078 231° Southwest 271 312 8,600  Level Boston Center
Mon 03:43:00 PM 43.4155 -70.3516 226° Southwest  Level FlightAware Approximate
Mon 03:43:22 PM 43.5261 -70.6389 195° South 274 315 10,500  Level Boston Center
Mon 03:44:00 PM 43.3475 -70.4469 226° Southwest  Level FlightAware Approximate
Mon 03:44:24 PM 43.4472 -70.6583 190° South 309 356 12,600  Level Boston Center
Mon 03:45:00 PM 43.2859 -70.5497 232° Southwest  Level FlightAware Approximate
Mon 03:45:24 PM 43.3475 -70.6814 190° South 349 402 13,700  Level Boston Center
Mon 03:46:00 PM 43.2135 -70.6366 216° Southwest  Level FlightAware Approximate
Mon 03:46:22 PM 43.2400 -70.7358 200° South 379 436 15,600  Level Boston Center
Mon 03:47:23 PM 43.1469 -70.7839 201° Southwest 386 444 17,200 1,587 Climbing Boston Center
Mon 03:48:23 PM 43.0333 -70.8439 201° Southwest 398 458 18,800 1,400 Climbing Boston Center
Mon 03:49:23 PM 42.9297 -70.8975 201° Southwest 391 450 20,000 1,190 Climbing Boston Center
Mon 03:50:24 PM 42.8200 -70.9542 201° Southwest 405 466 21,200 1,210 Climbing Boston Center
Mon 03:51:22 PM 42.7125 -71.0103 201° Southwest 415 478 22,400 1,100 Climbing Boston Center
Mon 03:52:24 PM 42.6025 -71.0664 201° Southwest 422 486 23,400 1,100 Climbing Boston Center
Mon 03:53:22 PM 42.5058 -71.1586 215° Southwest 422 486 24,600 1,613 Climbing Boston Center
Mon 03:54:23 PM 42.4169 -71.2478 217° Southwest 422 486 26,600 1,525 Climbing Boston Center
Mon 03:55:24 PM 42.3344 -71.3222 214° Southwest 408 470 27,700 694 Climbing Boston Center
Mon 03:56:24 PM 42.2478 -71.4081 216° Southwest 403 464 28,000 153 Climbing Boston Center
Mon 03:57:22 PM 42.1567 -71.4964 216° Southwest 403 464 28,000  Level Boston Center
Mon 03:58:23 PM 42.0553 -71.5844 213° Southwest 403 464 28,000  Level Boston Center
Mon 03:59:24 PM 41.9683 -71.6694 216° Southwest 403 464 28,000  Level Boston Center
Mon 04:00:22 PM 41.8836 -71.7486 215° Southwest 403 464 28,000  Level Boston Center
Mon 04:01:22 PM 41.7964 -71.8303 215° Southwest 393 452 28,000  Level Boston Center
Mon 04:02:23 PM 41.7281 -71.8950 215° Southwest 388 447 28,000  Level Boston Center
Mon 04:03:23 PM 41.6242 -71.9903 214° Southwest 383 441 28,000  Level Boston Center
Mon 04:04:24 PM 41.5369 -72.0711 215° Southwest 383 441 28,000  Level Boston Center
Mon 04:05:24 PM 41.4539 -72.1492 215° Southwest 377 434 28,000  Level Boston Center
Mon 04:06:22 PM 41.3686 -72.2297 215° Southwest 377 434 28,000  Level Boston Center
Mon 04:07:22 PM 41.2958 -72.2936 213° Southwest 377 434 28,000  Level Boston Center
Mon 04:08:23 PM 41.2000 -72.3822 215° Southwest 377 434 28,000  Level Boston Center
Mon 04:09:25 PM 41.1167 -72.4594 215° Southwest 377 434 28,000  Level Boston Center
Mon 04:10:22 PM 41.0333 -72.5364 215° Southwest 377 434 28,000  Level Boston Center
Mon 04:11:22 PM 40.9497 -72.6106 214° Southwest 377 434 28,000 -545 Level Boston Center
Mon 04:12:23 PM 40.8642 -72.6925 216° Southwest 377 434 26,900 -1,410 Descending Boston Center
Mon 04:14:42 PM 40.6725 -72.8617 214° Southwest 379 436 23,300 -1,568 Descending New York Center
Mon 04:15:42 PM 40.5900 -72.9356 214° Southwest 374 430 21,700 -1,600 Descending New York Center
Mon 04:16:42 PM 40.5114 -73.0067 215° Southwest 363 418 20,100 -850 Descending New York Center
Mon 04:17:42 PM 40.4331 -73.0778 215° Southwest 358 412 20,000 -51 Descending New York Center
Mon 04:18:40 PM 40.3525 -73.1486 214° Southwest 358 412 20,000  Level New York Center
Mon 04:19:41 PM 40.2719 -73.2167 213° Southwest 358 412 20,000  Level New York Center
Mon 04:20:41 PM 40.1931 -73.2897 215° Southwest 358 412 20,000  Level New York Center
Mon 04:21:41 PM 40.1125 -73.3603 214° Southwest 358 412 20,000  Level New York Center
Mon 04:22:42 PM 40.0317 -73.4331 215° Southwest 358 412 20,000  Level New York Center
Mon 04:23:42 PM 39.9403 -73.5081 212° Southwest 358 412 20,000  Level New York Center
Mon 04:24:40 PM 39.8717 -73.5919 223° Southwest 358 412 20,000 -400 Level New York Center
Mon 04:25:42 PM 39.8108 -73.6894 231° Southwest 352 405 19,200 -1,041 Descending New York Center
Mon 04:26:41 PM 39.7522 -73.7842 231° Southwest 352 405 17,900 -1,269 Descending New York Center
Mon 04:27:26 PM 39.7050 -73.8544 229° Southwest 343 395 17,000 -1,269 Descending Washington Center
Mon 04:28:25 PM 39.6439 -73.9478 230° Southwest 348 400 15,700 -1,364 Descending Washington Center
Mon 04:29:16 PM 39.5939 -74.0278 231° Southwest 332 382 14,500 -1,352 Descending FAA TRACON SMA TRACON (SMA)
Mon 04:29:36 PM 39.5747 -74.0561 229° Southwest 335 386 14,100 -750 Descending FAA TRACON SMA TRACON (SMA)
Mon 04:29:56 PM 39.5561 -74.0839 229° Southwest 333 383 14,000 -146 Descending FAA TRACON SMA TRACON (SMA)
Mon 04:30:17 PM 39.5378 -74.1114 229° Southwest 332 382 14,000  Level FAA TRACON SMA TRACON (SMA)
Mon 04:30:36 PM 39.5147 -74.1456 229° Southwest 329 379 14,000  Level FAA TRACON SMA TRACON (SMA)
Mon 04:30:56 PM 39.4978 -74.1717 230° Southwest 329 379 14,000  Level FAA TRACON SMA TRACON (SMA)
Mon 04:31:16 PM 39.4786 -74.1997 228° Southwest 324 373 14,000  Level FAA TRACON SMA TRACON (SMA)
Mon 04:31:36 PM 39.4569 -74.2328 230° Southwest 319 367 14,000  Level FAA TRACON SMA TRACON (SMA)
Mon 04:31:56 PM 39.4397 -74.2589 230° Southwest 314 361 14,000  Level FAA TRACON SMA TRACON (SMA)
Mon 04:32:16 PM 39.4236 -74.2833 230° Southwest 316 364 14,000  Level FAA TRACON SMA TRACON (SMA)
Mon 04:32:36 PM 39.4008 -74.3172 229° Southwest 311 358 14,000  Level FAA TRACON SMA TRACON (SMA)
Mon 04:32:56 PM 39.3839 -74.3425 229° Southwest 306 352 14,000  Level FAA TRACON SMA TRACON (SMA)
Mon 04:33:16 PM 39.3669 -74.3681 229° Southwest 305 351 14,000  Level FAA TRACON SMA TRACON (SMA)
Mon 04:33:37 PM 39.3456 -74.3997 229° Southwest 304 350 14,000  Level FAA TRACON SMA TRACON (SMA)
Mon 04:33:56 PM 39.3289 -74.4247 229° Southwest 302 348 14,000  Level FAA TRACON SMA TRACON (SMA)
Mon 04:34:16 PM 39.3122 -74.4494 229° Southwest 300 345 14,000  Level FAA TRACON SMA TRACON (SMA)
Mon 04:34:36 PM 39.2928 -74.4800 231° Southwest 298 343 14,000 -300 Level FAA TRACON SMA TRACON (SMA)
Mon 04:34:56 PM 39.2822 -74.5100 246° West 304 350 13,800 -1,050 Descending FAA TRACON SMA TRACON (SMA)
Mon 04:35:16 PM 39.2828 -74.5428 271° West 302 348 13,300 -1,650 Descending FAA TRACON SMA TRACON (SMA)
Mon 04:35:36 PM 39.2975 -74.5803 297° West 307 353 12,700 -1,500 Descending FAA TRACON SMA TRACON (SMA)
Mon 04:35:56 PM 39.3144 -74.6067 310° West 313 360 12,300 -1,171 Descending FAA TRACON SMA TRACON (SMA)
Mon 04:36:17 PM 39.3306 -74.6342 307° West 311 358 11,900 -1,463 Descending FAA TRACON SMA TRACON (SMA)
Mon 04:36:37 PM 39.3517 -74.6675 309° West 311 358 11,300 -1,500 Descending FAA TRACON SMA TRACON (SMA)
Mon 04:36:57 PM 39.3678 -74.6947 307° West 312 359 10,900 -1,350 Descending FAA TRACON SMA TRACON (SMA)
Mon 04:37:17 PM 39.3867 -74.7239 310° West 310 357 10,400 -1,500 Descending FAA TRACON SMA TRACON (SMA)
Mon 04:37:37 PM 39.4036 -74.7506 309° West 272 313 9,900 -1,800 Descending FAA TRACON SMA TRACON (SMA)
Mon 04:37:57 PM 39.4172 -74.7728 308° West 252 290 9,200 -1,350 Descending FAA TRACON SMA TRACON (SMA)
Mon 04:38:17 PM 39.4311 -74.7947 309° West 254 292 9,000 -300 Descending FAA TRACON SMA TRACON (SMA)
Mon 04:38:37 PM 39.4486 -74.8231 309° West 260 299 9,000  Level FAA TRACON SMA TRACON (SMA)
Mon 04:38:57 PM 39.4631 -74.8456 310° West 262 302 9,000  Level FAA TRACON SMA TRACON (SMA)
Mon 04:39:17 PM 39.4769 -74.8689 308° West 265 305 9,000  Level FAA TRACON SMA TRACON (SMA)
Mon 04:39:37 PM 39.4956 -74.8989 309° West 271 312 9,000 -682 Level FAA TRACON SMA TRACON (SMA)
Mon 04:40:01 PM 39.5108 -74.9308 302° West 276 318 8,500 -1,227 Descending FAA TRACON SMA TRACON (SMA)
Mon 04:40:21 PM 39.5086 -74.9583 264° West 250 288 8,100 -857 Descending FAA TRACON SMA TRACON (SMA)
Mon 04:40:36 PM 39.5022 -74.9797 249° West 282 325 8,000 -171 Descending FAA TRACON SMA TRACON (SMA)
Mon 04:40:56 PM 39.4936 -75.0119 251° West 246 283 8,000  Level FAA TRACON SMA TRACON (SMA)
Mon 04:41:16 PM 39.4858 -75.0369 248° West 248 285 8,000  Level FAA TRACON SMA TRACON (SMA)
Mon 04:41:36 PM 39.4783 -75.0631 250° West 248 285 8,000  Level FAA TRACON SMA TRACON (SMA)
Mon 04:41:56 PM 39.4694 -75.0964 251° West 251 289 8,000  Level FAA TRACON SMA TRACON (SMA)
Mon 04:42:16 PM 39.4625 -75.1225 251° West 251 289 8,000 -750 Level FAA TRACON SMA TRACON (SMA)
Mon 04:42:36 PM 39.4550 -75.1492 250° West 251 289 7,500 -1,650 Descending FAA TRACON SMA TRACON (SMA)
Mon 04:42:56 PM 39.4461 -75.1817 251° West 251 289 6,900 -1,650 Descending FAA TRACON SMA TRACON (SMA)
Mon 04:43:16 PM 39.4389 -75.2089 251° West 254 292 6,400 -1,200 Descending FAA TRACON SMA TRACON (SMA)
Mon 04:43:36 PM 39.4314 -75.2356 250° West 255 293 6,100 -600 Descending FAA TRACON SMA TRACON (SMA)
Mon 04:43:56 PM 39.4228 -75.2675 251° West 254 292 6,000 -146 Descending FAA TRACON SMA TRACON (SMA)
Mon 04:44:17 PM 39.4236 -75.2961 272° West 264 304 6,000  Level FAA TRACON SMA TRACON (SMA)
Mon 04:44:37 PM 39.4383 -75.3183 311° West 270 311 6,000  Level FAA TRACON SMA TRACON (SMA)
Mon 04:44:56 PM 39.4656 -75.3214 355° North 276 318 6,000  Level FAA TRACON SMA TRACON (SMA)
Mon 04:45:16 PM 39.4872 -75.3069 27° Northeast 284 327 6,000  Level FAA TRACON SMA TRACON (SMA)
Mon 04:45:36 PM 39.5028 -75.2828 50° Northeast 291 335 6,000  Level FAA TRACON SMA TRACON (SMA)
Mon 04:45:56 PM 39.5219 -75.2531 50° Northeast 285 328 6,000  Level FAA TRACON SMA TRACON (SMA)
Mon 04:46:16 PM 39.5375 -75.2283 51° Northeast 285 328 6,000 -300 Level FAA TRACON SMA TRACON (SMA)
Mon 04:46:36 PM 39.5522 -75.2067 49° Northeast 266 306 5,800 -1,200 Descending FAA TRACON SMA TRACON (SMA)
Mon 04:46:56 PM 39.5703 -75.1803 48° Northeast 257 296 5,200 -1,200 Descending FAA TRACON SMA TRACON (SMA)
Mon 04:47:16 PM 39.5833 -75.1611 49° Northeast 250 288 5,000 -300 Descending FAA TRACON SMA TRACON (SMA)
Mon 04:47:36 PM 39.5975 -75.1408 48° Northeast 233 268 5,000  Level FAA TRACON SMA TRACON (SMA)
Mon 04:47:56 PM 39.6125 -75.1186 49° Northeast 202 232 5,000  Level FAA TRACON SMA TRACON (SMA)
Mon 04:48:16 PM 39.6233 -75.1039 46° Northeast 197 227 5,000  Level FAA TRACON SMA TRACON (SMA)
Mon 04:48:36 PM 39.6397 -75.0997 11° North 186 214 5,000 -600 Level FAA TRACON SMA TRACON (SMA)
Mon 04:48:56 PM 39.6597 -75.1050 349° North 191 220 4,600 -1,350 Descending FAA TRACON SMA TRACON (SMA)
Mon 04:49:16 PM 39.6747 -75.1136 336° Northwest 191 220 4,100 -1,500 Descending FAA TRACON SMA TRACON (SMA)
Mon 04:49:36 PM 39.6889 -75.1233 332° Northwest 191 220 3,600 -1,500 Descending FAA TRACON SMA TRACON (SMA)
Mon 04:49:56 PM 39.7056 -75.1342 333° Northwest 189 217 3,100 -1,050 Descending FAA TRACON SMA TRACON (SMA)
Mon 04:50:16 PM 39.7214 -75.1431 337° Northwest 182 209 2,900 -750 Descending FAA TRACON SMA TRACON (SMA)
Mon 04:50:36 PM 39.7347 -75.1517 334° Northwest 179 206 2,600 -900 Descending FAA TRACON SMA TRACON (SMA)

Login

Don't have an account? Register now (free) for customized features, flight alerts, and more!